sensor_id;sensor_type;location;lat;lon;timestamp;P1;durP1;ratioP1;P2;durP2;ratioP2
72517;SDS011;60540;51.178;6.738;2022-10-17T00:00:41;6.63;;;4.07;;
72517;SDS011;60540;51.178;6.738;2022-10-17T00:03:27;9.05;;;4.78;;
72517;SDS011;60540;51.178;6.738;2022-10-17T00:05:53;8.10;;;4.10;;
72517;SDS011;60540;51.178;6.738;2022-10-17T00:08:18;7.35;;;4.25;;
72517;SDS011;60540;51.178;6.738;2022-10-17T00:10:44;8.23;;;4.45;;
72517;SDS011;60540;51.178;6.738;2022-10-17T00:13:10;11.90;;;4.47;;
72517;SDS011;60540;51.178;6.738;2022-10-17T00:15:36;8.57;;;4.57;;
72517;SDS011;60540;51.178;6.738;2022-10-17T00:18:05;6.80;;;4.22;;
72517;SDS011;60540;51.178;6.738;2022-10-17T00:20:33;9.18;;;4.40;;
72517;SDS011;60540;51.178;6.738;2022-10-17T00:22:59;8.25;;;4.20;;
72517;SDS011;60540;51.178;6.738;2022-10-17T00:25:25;6.40;;;3.85;;
72517;SDS011;60540;51.178;6.738;2022-10-17T00:27:50;7.18;;;3.85;;
72517;SDS011;60540;51.178;6.738;2022-10-17T00:30:16;6.50;;;4.30;;
72517;SDS011;60540;51.178;6.738;2022-10-17T00:32:41;8.23;;;4.50;;
72517;SDS011;60540;51.178;6.738;2022-10-17T00:35:07;8.63;;;3.90;;
72517;SDS011;60540;51.178;6.738;2022-10-17T00:37:33;6.90;;;4.38;;
72517;SDS011;60540;51.178;6.738;2022-10-17T00:39:59;8.10;;;4.05;;
72517;SDS011;60540;51.178;6.738;2022-10-17T00:42:25;6.10;;;4.00;;
72517;SDS011;60540;51.178;6.738;2022-10-17T00:45:33;9.95;;;4.45;;
72517;SDS011;60540;51.178;6.738;2022-10-17T00:47:47;8.60;;;3.85;;
72517;SDS011;60540;51.178;6.738;2022-10-17T00:50:15;7.22;;;4.25;;
72517;SDS011;60540;51.178;6.738;2022-10-17T00:52:41;7.43;;;4.05;;
72517;SDS011;60540;51.178;6.738;2022-10-17T00:57:45;8.68;;;4.45;;
72517;SDS011;60540;51.178;6.738;2022-10-17T01:00:11;9.45;;;4.30;;
72517;SDS011;60540;51.178;6.738;2022-10-17T01:02:38;7.45;;;4.30;;
72517;SDS011;60540;51.178;6.738;2022-10-17T01:05:04;7.80;;;3.90;;
72517;SDS011;60540;51.178;6.738;2022-10-17T01:07:31;7.28;;;4.05;;
72517;SDS011;60540;51.178;6.738;2022-10-17T01:09:57;8.75;;;4.53;;
72517;SDS011;60540;51.178;6.738;2022-10-17T01:12:24;9.73;;;4.05;;
72517;SDS011;60540;51.178;6.738;2022-10-17T01:29:08;7.43;;;3.67;;
72517;SDS011;60540;51.178;6.738;2022-10-17T01:31:54;6.57;;;3.40;;
72517;SDS011;60540;51.178;6.738;2022-10-17T01:34:44;6.65;;;3.42;;
72517;SDS011;60540;51.178;6.738;2022-10-17T01:37:16;6.68;;;3.38;;
72517;SDS011;60540;51.178;6.738;2022-10-17T01:39:49;7.95;;;3.80;;
72517;SDS011;60540;51.178;6.738;2022-10-17T01:42:41;7.65;;;3.85;;
72517;SDS011;60540;51.178;6.738;2022-10-17T01:45:26;6.30;;;3.17;;
72517;SDS011;60540;51.178;6.738;2022-10-17T01:47:55;5.05;;;3.38;;
72517;SDS011;60540;51.178;6.738;2022-10-17T01:50:26;5.20;;;3.40;;
72517;SDS011;60540;51.178;6.738;2022-10-17T01:52:57;5.68;;;3.05;;
72517;SDS011;60540;51.178;6.738;2022-10-17T01:55:27;5.78;;;3.58;;
72517;SDS011;60540;51.178;6.738;2022-10-17T01:58:04;5.30;;;3.05;;
72517;SDS011;60540;51.178;6.738;2022-10-17T02:00:34;6.97;;;3.38;;
72517;SDS011;60540;51.178;6.738;2022-10-17T02:03:03;6.22;;;3.70;;
72517;SDS011;60540;51.178;6.738;2022-10-17T02:05:32;6.32;;;3.90;;
72517;SDS011;60540;51.178;6.738;2022-10-17T02:08:01;6.70;;;3.60;;
72517;SDS011;60540;51.178;6.738;2022-10-17T02:13:53;6.47;;;3.65;;
72517;SDS011;60540;51.178;6.738;2022-10-17T02:15:58;6.65;;;3.90;;
72517;SDS011;60540;51.178;6.738;2022-10-17T02:21:23;7.45;;;3.97;;
72517;SDS011;60540;51.178;6.738;2022-10-17T02:24:06;6.25;;;4.00;;
72517;SDS011;60540;51.178;6.738;2022-10-17T02:26:45;6.57;;;3.90;;
72517;SDS011;60540;51.178;6.738;2022-10-17T02:29:16;8.20;;;3.78;;
72517;SDS011;60540;51.178;6.738;2022-10-17T02:34:50;6.70;;;3.20;;
72517;SDS011;60540;51.178;6.738;2022-10-17T02:37:16;7.10;;;3.90;;
72517;SDS011;60540;51.178;6.738;2022-10-17T02:39:44;7.07;;;3.80;;
72517;SDS011;60540;51.178;6.738;2022-10-17T02:42:11;8.55;;;3.92;;
72517;SDS011;60540;51.178;6.738;2022-10-17T02:44:38;6.43;;;4.13;;
72517;SDS011;60540;51.178;6.738;2022-10-17T02:47:12;8.60;;;4.65;;
72517;SDS011;60540;51.178;6.738;2022-10-17T02:50:00;7.97;;;4.25;;
72517;SDS011;60540;51.178;6.738;2022-10-17T02:52:33;8.55;;;4.43;;
72517;SDS011;60540;51.178;6.738;2022-10-17T02:57:41;7.90;;;4.43;;
72517;SDS011;60540;51.178;6.738;2022-10-17T03:00:10;9.73;;;4.70;;
72517;SDS011;60540;51.178;6.738;2022-10-17T03:02:37;8.00;;;3.90;;
72517;SDS011;60540;51.178;6.738;2022-10-17T03:05:04;8.38;;;4.50;;
72517;SDS011;60540;51.178;6.738;2022-10-17T03:07:29;7.55;;;3.97;;
72517;SDS011;60540;51.178;6.738;2022-10-17T03:09:55;7.20;;;3.92;;
72517;SDS011;60540;51.178;6.738;2022-10-17T03:12:20;8.25;;;4.07;;
72517;SDS011;60540;51.178;6.738;2022-10-17T03:14:46;10.05;;;5.10;;
72517;SDS011;60540;51.178;6.738;2022-10-17T03:17:12;8.52;;;5.28;;
72517;SDS011;60540;51.178;6.738;2022-10-17T03:19:37;7.88;;;4.82;;
72517;SDS011;60540;51.178;6.738;2022-10-17T03:22:03;7.53;;;4.95;;
72517;SDS011;60540;51.178;6.738;2022-10-17T03:24:28;7.60;;;4.75;;
72517;SDS011;60540;51.178;6.738;2022-10-17T03:26:54;8.20;;;4.43;;
72517;SDS011;60540;51.178;6.738;2022-10-17T03:29:20;7.35;;;4.45;;
72517;SDS011;60540;51.178;6.738;2022-10-17T03:31:46;10.73;;;4.70;;
72517;SDS011;60540;51.178;6.738;2022-10-17T03:34:11;11.23;;;4.45;;
72517;SDS011;60540;51.178;6.738;2022-10-17T03:36:37;7.30;;;4.00;;
72517;SDS011;60540;51.178;6.738;2022-10-17T03:39:02;10.15;;;4.53;;
72517;SDS011;60540;51.178;6.738;2022-10-17T03:41:28;6.53;;;4.00;;
72517;SDS011;60540;51.178;6.738;2022-10-17T03:43:53;7.30;;;4.53;;
72517;SDS011;60540;51.178;6.738;2022-10-17T03:46:19;8.82;;;5.05;;
72517;SDS011;60540;51.178;6.738;2022-10-17T03:48:45;7.82;;;3.97;;
72517;SDS011;60540;51.178;6.738;2022-10-17T03:51:10;8.55;;;4.93;;
72517;SDS011;60540;51.178;6.738;2022-10-17T03:53:36;8.77;;;4.78;;
72517;SDS011;60540;51.178;6.738;2022-10-17T03:56:15;9.20;;;4.55;;
72517;SDS011;60540;51.178;6.738;2022-10-17T03:58:42;9.40;;;4.63;;
72517;SDS011;60540;51.178;6.738;2022-10-17T04:01:09;8.00;;;4.68;;
72517;SDS011;60540;51.178;6.738;2022-10-17T04:03:36;8.38;;;4.57;;
72517;SDS011;60540;51.178;6.738;2022-10-17T04:06:02;8.80;;;4.60;;
72517;SDS011;60540;51.178;6.738;2022-10-17T04:08:29;8.93;;;4.75;;
72517;SDS011;60540;51.178;6.738;2022-10-17T04:11:01;6.53;;;3.70;;
72517;SDS011;60540;51.178;6.738;2022-10-17T04:13:28;5.95;;;3.70;;
72517;SDS011;60540;51.178;6.738;2022-10-17T04:15:59;7.72;;;3.85;;
72517;SDS011;60540;51.178;6.738;2022-10-17T04:18:26;6.10;;;3.80;;
72517;SDS011;60540;51.178;6.738;2022-10-17T04:20:52;7.70;;;4.38;;
72517;SDS011;60540;51.178;6.738;2022-10-17T04:23:18;9.23;;;4.07;;
72517;SDS011;60540;51.178;6.738;2022-10-17T04:25:44;7.68;;;4.82;;
72517;SDS011;60540;51.178;6.738;2022-10-17T04:28:10;8.27;;;4.65;;
72517;SDS011;60540;51.178;6.738;2022-10-17T04:30:36;9.98;;;4.93;;
72517;SDS011;60540;51.178;6.738;2022-10-17T04:33:01;9.50;;;4.28;;
72517;SDS011;60540;51.178;6.738;2022-10-17T04:35:27;6.35;;;3.58;;
72517;SDS011;60540;51.178;6.738;2022-10-17T04:37:52;6.90;;;3.83;;
72517;SDS011;60540;51.178;6.738;2022-10-17T04:40:18;7.75;;;4.00;;
72517;SDS011;60540;51.178;6.738;2022-10-17T04:42:44;7.28;;;4.28;;
72517;SDS011;60540;51.178;6.738;2022-10-17T04:45:09;6.13;;;3.35;;
72517;SDS011;60540;51.178;6.738;2022-10-17T04:47:35;7.75;;;3.58;;
72517;SDS011;60540;51.178;6.738;2022-10-17T04:50:00;6.97;;;3.63;;
72517;SDS011;60540;51.178;6.738;2022-10-17T04:52:26;7.40;;;4.10;;
72517;SDS011;60540;51.178;6.738;2022-10-17T04:54:52;6.93;;;3.65;;
72517;SDS011;60540;51.178;6.738;2022-10-17T04:57:17;7.53;;;4.18;;
72517;SDS011;60540;51.178;6.738;2022-10-17T04:59:44;7.47;;;4.03;;
72517;SDS011;60540;51.178;6.738;2022-10-17T05:02:09;11.25;;;4.53;;
72517;SDS011;60540;51.178;6.738;2022-10-17T05:04:35;8.93;;;4.20;;
72517;SDS011;60540;51.178;6.738;2022-10-17T05:07:01;6.60;;;4.20;;
72517;SDS011;60540;51.178;6.738;2022-10-17T05:09:26;8.93;;;4.22;;
72517;SDS011;60540;51.178;6.738;2022-10-17T05:11:52;7.55;;;4.03;;
72517;SDS011;60540;51.178;6.738;2022-10-17T05:14:18;8.48;;;3.92;;
72517;SDS011;60540;51.178;6.738;2022-10-17T05:16:43;6.82;;;3.97;;
72517;SDS011;60540;51.178;6.738;2022-10-17T05:19:09;9.32;;;4.30;;
72517;SDS011;60540;51.178;6.738;2022-10-17T05:21:35;7.78;;;3.95;;
72517;SDS011;60540;51.178;6.738;2022-10-17T05:24:03;6.22;;;4.07;;
72517;SDS011;60540;51.178;6.738;2022-10-17T05:26:30;8.80;;;3.90;;
72517;SDS011;60540;51.178;6.738;2022-10-17T05:28:56;8.93;;;4.38;;
72517;SDS011;60540;51.178;6.738;2022-10-17T05:31:23;8.05;;;4.50;;
72517;SDS011;60540;51.178;6.738;2022-10-17T05:33:48;7.55;;;4.28;;
72517;SDS011;60540;51.178;6.738;2022-10-17T05:36:14;7.95;;;4.55;;
72517;SDS011;60540;51.178;6.738;2022-10-17T05:38:39;9.00;;;4.20;;
72517;SDS011;60540;51.178;6.738;2022-10-17T05:41:05;11.52;;;4.57;;
72517;SDS011;60540;51.178;6.738;2022-10-17T05:43:31;8.85;;;4.50;;
72517;SDS011;60540;51.178;6.738;2022-10-17T05:48:22;9.68;;;4.13;;
72517;SDS011;60540;51.178;6.738;2022-10-17T05:50:48;8.95;;;4.78;;
72517;SDS011;60540;51.178;6.738;2022-10-17T05:53:14;9.15;;;4.15;;
72517;SDS011;60540;51.178;6.738;2022-10-17T05:55:40;9.48;;;4.30;;
72517;SDS011;60540;51.178;6.738;2022-10-17T05:58:05;8.50;;;4.95;;
72517;SDS011;60540;51.178;6.738;2022-10-17T06:00:31;8.95;;;4.80;;
72517;SDS011;60540;51.178;6.738;2022-10-17T06:02:57;10.82;;;4.57;;
72517;SDS011;60540;51.178;6.738;2022-10-17T06:05:22;9.95;;;4.85;;
72517;SDS011;60540;51.178;6.738;2022-10-17T06:07:48;7.60;;;3.95;;
72517;SDS011;60540;51.178;6.738;2022-10-17T06:10:16;7.32;;;3.80;;
72517;SDS011;60540;51.178;6.738;2022-10-17T06:12:42;8.25;;;4.03;;
72517;SDS011;60540;51.178;6.738;2022-10-17T06:15:09;8.50;;;4.28;;
72517;SDS011;60540;51.178;6.738;2022-10-17T06:17:35;7.88;;;3.40;;
72517;SDS011;60540;51.178;6.738;2022-10-17T06:20:01;5.88;;;3.50;;
72517;SDS011;60540;51.178;6.738;2022-10-17T06:22:27;8.77;;;4.47;;
72517;SDS011;60540;51.178;6.738;2022-10-17T06:24:52;7.72;;;3.75;;
72517;SDS011;60540;51.178;6.738;2022-10-17T06:27:18;9.38;;;3.70;;
72517;SDS011;60540;51.178;6.738;2022-10-17T06:29:45;7.20;;;3.75;;
72517;SDS011;60540;51.178;6.738;2022-10-17T06:32:11;7.93;;;3.85;;
72517;SDS011;60540;51.178;6.738;2022-10-17T06:34:37;10.90;;;4.68;;
72517;SDS011;60540;51.178;6.738;2022-10-17T06:37:02;11.38;;;4.70;;
72517;SDS011;60540;51.178;6.738;2022-10-17T06:39:28;9.95;;;4.13;;
72517;SDS011;60540;51.178;6.738;2022-10-17T06:42:00;8.50;;;3.58;;
72517;SDS011;60540;51.178;6.738;2022-10-17T06:44:27;7.68;;;3.92;;
72517;SDS011;60540;51.178;6.738;2022-10-17T06:46:56;8.73;;;3.65;;
72517;SDS011;60540;51.178;6.738;2022-10-17T06:49:25;9.00;;;4.18;;
72517;SDS011;60540;51.178;6.738;2022-10-17T06:51:51;7.45;;;4.00;;
72517;SDS011;60540;51.178;6.738;2022-10-17T06:54:17;11.25;;;5.18;;
72517;SDS011;60540;51.178;6.738;2022-10-17T06:56:43;9.07;;;4.43;;
72517;SDS011;60540;51.178;6.738;2022-10-17T06:59:09;10.27;;;4.55;;
72517;SDS011;60540;51.178;6.738;2022-10-17T07:01:34;9.90;;;4.30;;
72517;SDS011;60540;51.178;6.738;2022-10-17T07:04:00;10.77;;;4.20;;
72517;SDS011;60540;51.178;6.738;2022-10-17T07:06:26;9.32;;;4.40;;
72517;SDS011;60540;51.178;6.738;2022-10-17T07:08:51;9.20;;;4.57;;
72517;SDS011;60540;51.178;6.738;2022-10-17T07:11:19;11.43;;;4.40;;
72517;SDS011;60540;51.178;6.738;2022-10-17T07:13:46;8.68;;;4.28;;
72517;SDS011;60540;51.178;6.738;2022-10-17T07:16:12;10.30;;;4.22;;
72517;SDS011;60540;51.178;6.738;2022-10-17T07:18:38;9.40;;;4.50;;
72517;SDS011;60540;51.178;6.738;2022-10-17T07:21:04;8.93;;;4.30;;
72517;SDS011;60540;51.178;6.738;2022-10-17T07:23:30;11.80;;;4.00;;
72517;SDS011;60540;51.178;6.738;2022-10-17T07:26:00;11.18;;;4.68;;
72517;SDS011;60540;51.178;6.738;2022-10-17T07:28:27;22.17;;;5.13;;
72517;SDS011;60540;51.178;6.738;2022-10-17T07:30:53;9.02;;;3.78;;
72517;SDS011;60540;51.178;6.738;2022-10-17T07:33:19;9.25;;;4.22;;
72517;SDS011;60540;51.178;6.738;2022-10-17T07:35:44;8.48;;;4.30;;
72517;SDS011;60540;51.178;6.738;2022-10-17T07:38:10;7.40;;;4.15;;
72517;SDS011;60540;51.178;6.738;2022-10-17T07:40:35;8.43;;;4.07;;
72517;SDS011;60540;51.178;6.738;2022-10-17T07:43:01;8.68;;;4.00;;
72517;SDS011;60540;51.178;6.738;2022-10-17T07:45:26;8.13;;;3.70;;
72517;SDS011;60540;51.178;6.738;2022-10-17T07:47:58;8.68;;;3.67;;
72517;SDS011;60540;51.178;6.738;2022-10-17T07:50:23;7.70;;;3.35;;
72517;SDS011;60540;51.178;6.738;2022-10-17T07:52:49;7.47;;;3.63;;
72517;SDS011;60540;51.178;6.738;2022-10-17T07:55:15;7.72;;;3.35;;
72517;SDS011;60540;51.178;6.738;2022-10-17T07:57:40;8.65;;;4.10;;
72517;SDS011;60540;51.178;6.738;2022-10-17T08:00:07;9.05;;;3.35;;
72517;SDS011;60540;51.178;6.738;2022-10-17T08:02:33;9.38;;;3.72;;
72517;SDS011;60540;51.178;6.738;2022-10-17T08:04:58;8.57;;;3.75;;
72517;SDS011;60540;51.178;6.738;2022-10-17T08:07:27;9.43;;;3.40;;
72517;SDS011;60540;51.178;6.738;2022-10-17T08:09:53;5.38;;;3.42;;
72517;SDS011;60540;51.178;6.738;2022-10-17T08:12:19;5.82;;;3.45;;
72517;SDS011;60540;51.178;6.738;2022-10-17T08:14:44;5.68;;;3.40;;
72517;SDS011;60540;51.178;6.738;2022-10-17T08:17:10;8.48;;;3.75;;
72517;SDS011;60540;51.178;6.738;2022-10-17T08:19:38;9.55;;;3.30;;
72517;SDS011;60540;51.178;6.738;2022-10-17T08:22:04;7.88;;;3.35;;
72517;SDS011;60540;51.178;6.738;2022-10-17T08:24:30;8.38;;;3.63;;
72517;SDS011;60540;51.178;6.738;2022-10-17T08:26:56;6.07;;;3.45;;
72517;SDS011;60540;51.178;6.738;2022-10-17T08:29:22;8.13;;;3.50;;
72517;SDS011;60540;51.178;6.738;2022-10-17T08:31:48;5.32;;;3.17;;
72517;SDS011;60540;51.178;6.738;2022-10-17T08:34:13;6.30;;;3.20;;
72517;SDS011;60540;51.178;6.738;2022-10-17T08:36:40;7.30;;;3.80;;
72517;SDS011;60540;51.178;6.738;2022-10-17T08:39:05;9.75;;;3.85;;
72517;SDS011;60540;51.178;6.738;2022-10-17T08:47:02;7.25;;;3.60;;
72517;SDS011;60540;51.178;6.738;2022-10-17T08:49:42;5.88;;;2.92;;
72517;SDS011;60540;51.178;6.738;2022-10-17T08:54:46;9.43;;;3.92;;
72517;SDS011;60540;51.178;6.738;2022-10-17T08:57:12;6.88;;;3.15;;
72517;SDS011;60540;51.178;6.738;2022-10-17T08:59:40;5.43;;;2.85;;
72517;SDS011;60540;51.178;6.738;2022-10-17T09:07:35;5.30;;;2.95;;
72517;SDS011;60540;51.178;6.738;2022-10-17T09:10:06;7.05;;;3.30;;
72517;SDS011;60540;51.178;6.738;2022-10-17T09:12:47;6.05;;;3.10;;
72517;SDS011;60540;51.178;6.738;2022-10-17T09:18:14;5.13;;;2.47;;
72517;SDS011;60540;51.178;6.738;2022-10-17T09:20:44;6.28;;;2.88;;
72517;SDS011;60540;51.178;6.738;2022-10-17T09:23:16;8.13;;;3.65;;
72517;SDS011;60540;51.178;6.738;2022-10-17T09:25:48;6.47;;;3.05;;
72517;SDS011;60540;51.178;6.738;2022-10-17T09:28:16;6.80;;;2.95;;
72517;SDS011;60540;51.178;6.738;2022-10-17T09:30:46;7.60;;;2.80;;
72517;SDS011;60540;51.178;6.738;2022-10-17T09:33:16;6.60;;;3.03;;
72517;SDS011;60540;51.178;6.738;2022-10-17T09:35:43;6.78;;;3.05;;
72517;SDS011;60540;51.178;6.738;2022-10-17T09:38:16;5.40;;;2.72;;
72517;SDS011;60540;51.178;6.738;2022-10-17T09:40:43;4.75;;;2.80;;
72517;SDS011;60540;51.178;6.738;2022-10-17T09:43:12;5.00;;;2.80;;
72517;SDS011;60540;51.178;6.738;2022-10-17T09:45:40;6.53;;;2.65;;
72517;SDS011;60540;51.178;6.738;2022-10-17T09:50:43;5.95;;;3.10;;
72517;SDS011;60540;51.178;6.738;2022-10-17T09:53:18;7.10;;;2.80;;
72517;SDS011;60540;51.178;6.738;2022-10-17T09:55:51;5.90;;;2.67;;
72517;SDS011;60540;51.178;6.738;2022-10-17T09:58:20;6.05;;;2.80;;
72517;SDS011;60540;51.178;6.738;2022-10-17T10:00:46;10.45;;;3.50;;
72517;SDS011;60540;51.178;6.738;2022-10-17T10:05:38;5.45;;;2.90;;
72517;SDS011;60540;51.178;6.738;2022-10-17T10:08:10;5.22;;;2.50;;
72517;SDS011;60540;51.178;6.738;2022-10-17T10:10:41;5.50;;;2.63;;
72517;SDS011;60540;51.178;6.738;2022-10-17T10:15:43;4.22;;;2.47;;
72517;SDS011;60540;51.178;6.738;2022-10-17T10:21:06;5.60;;;2.70;;
72517;SDS011;60540;51.178;6.738;2022-10-17T10:23:34;4.38;;;2.80;;
72517;SDS011;60540;51.178;6.738;2022-10-17T10:26:09;5.03;;;2.42;;
72517;SDS011;60540;51.178;6.738;2022-10-17T10:28:53;6.60;;;2.58;;
72517;SDS011;60540;51.178;6.738;2022-10-17T10:31:25;4.45;;;2.63;;
72517;SDS011;60540;51.178;6.738;2022-10-17T10:33:51;5.35;;;3.00;;
72517;SDS011;60540;51.178;6.738;2022-10-17T10:36:17;6.38;;;2.92;;
72517;SDS011;60540;51.178;6.738;2022-10-17T10:38:53;6.05;;;3.15;;
72517;SDS011;60540;51.178;6.738;2022-10-17T10:41:20;5.38;;;2.92;;
72517;SDS011;60540;51.178;6.738;2022-10-17T10:43:47;4.78;;;3.05;;
72517;SDS011;60540;51.178;6.738;2022-10-17T10:46:21;7.03;;;2.83;;
72517;SDS011;60540;51.178;6.738;2022-10-17T10:48:49;7.75;;;2.72;;
72517;SDS011;60540;51.178;6.738;2022-10-17T10:51:17;4.65;;;2.50;;
72517;SDS011;60540;51.178;6.738;2022-10-17T10:53:50;5.50;;;2.83;;
72517;SDS011;60540;51.178;6.738;2022-10-17T10:56:27;6.32;;;2.60;;
72517;SDS011;60540;51.178;6.738;2022-10-17T11:01:47;5.55;;;3.30;;
72517;SDS011;60540;51.178;6.738;2022-10-17T11:04:27;8.32;;;2.72;;
72517;SDS011;60540;51.178;6.738;2022-10-17T11:07:22;6.18;;;3.00;;
72517;SDS011;60540;51.178;6.738;2022-10-17T11:10:04;7.03;;;2.92;;
72517;SDS011;60540;51.178;6.738;2022-10-17T11:12:38;6.18;;;3.13;;
72517;SDS011;60540;51.178;6.738;2022-10-17T11:15:19;7.18;;;3.75;;
72517;SDS011;60540;51.178;6.738;2022-10-17T11:17:52;6.72;;;2.97;;
72517;SDS011;60540;51.178;6.738;2022-10-17T11:20:24;7.57;;;3.20;;
72517;SDS011;60540;51.178;6.738;2022-10-17T11:25:46;7.65;;;3.88;;
72517;SDS011;60540;51.178;6.738;2022-10-17T11:28:14;7.13;;;3.30;;
72517;SDS011;60540;51.178;6.738;2022-10-17T11:30:59;6.75;;;3.22;;
72517;SDS011;60540;51.178;6.738;2022-10-17T11:33:40;6.30;;;2.92;;
72517;SDS011;60540;51.178;6.738;2022-10-17T11:36:10;6.55;;;3.25;;
72517;SDS011;60540;51.178;6.738;2022-10-17T11:38:45;9.30;;;3.17;;
72517;SDS011;60540;51.178;6.738;2022-10-17T11:41:16;6.65;;;3.22;;
72517;SDS011;60540;51.178;6.738;2022-10-17T11:43:48;10.73;;;3.40;;
72517;SDS011;60540;51.178;6.738;2022-10-17T11:46:20;5.38;;;3.25;;
72517;SDS011;60540;51.178;6.738;2022-10-17T11:48:56;7.82;;;3.40;;
72517;SDS011;60540;51.178;6.738;2022-10-17T11:51:23;6.32;;;3.33;;
72517;SDS011;60540;51.178;6.738;2022-10-17T11:54:01;5.43;;;3.10;;
72517;SDS011;60540;51.178;6.738;2022-10-17T11:56:38;6.40;;;3.45;;
72517;SDS011;60540;51.178;6.738;2022-10-17T11:59:17;9.18;;;3.40;;
72517;SDS011;60540;51.178;6.738;2022-10-17T12:01:53;7.15;;;3.50;;
72517;SDS011;60540;51.178;6.738;2022-10-17T12:07:17;9.10;;;3.45;;
72517;SDS011;60540;51.178;6.738;2022-10-17T12:12:53;4.88;;;3.00;;
72517;SDS011;60540;51.178;6.738;2022-10-17T12:17:45;8.82;;;3.38;;
72517;SDS011;60540;51.178;6.738;2022-10-17T12:22:49;5.38;;;3.30;;
72517;SDS011;60540;51.178;6.738;2022-10-17T12:27:48;6.60;;;3.13;;
72517;SDS011;60540;51.178;6.738;2022-10-17T12:32:52;5.95;;;3.00;;
72517;SDS011;60540;51.178;6.738;2022-10-17T12:35:31;8.82;;;3.70;;
72517;SDS011;60540;51.178;6.738;2022-10-17T12:38:02;9.13;;;3.22;;
72517;SDS011;60540;51.178;6.738;2022-10-17T12:40:46;6.35;;;3.13;;
72517;SDS011;60540;51.178;6.738;2022-10-17T12:45:44;5.45;;;3.17;;
72517;SDS011;60540;51.178;6.738;2022-10-17T12:48:11;6.72;;;3.10;;
72517;SDS011;60540;51.178;6.738;2022-10-17T12:56:39;7.28;;;3.33;;
72517;SDS011;60540;51.178;6.738;2022-10-17T13:01:53;7.78;;;2.97;;
72517;SDS011;60540;51.178;6.738;2022-10-17T13:04:21;6.43;;;3.20;;
72517;SDS011;60540;51.178;6.738;2022-10-17T13:06:48;6.30;;;3.15;;
72517;SDS011;60540;51.178;6.738;2022-10-17T13:09:28;4.80;;;2.80;;
72517;SDS011;60540;51.178;6.738;2022-10-17T13:11:55;7.78;;;2.90;;
72517;SDS011;60540;51.178;6.738;2022-10-17T13:14:24;8.00;;;3.30;;
72517;SDS011;60540;51.178;6.738;2022-10-17T13:16:52;6.55;;;2.90;;
72517;SDS011;60540;51.178;6.738;2022-10-17T13:19:21;4.88;;;2.58;;
72517;SDS011;60540;51.178;6.738;2022-10-17T13:21:58;5.75;;;2.50;;
72517;SDS011;60540;51.178;6.738;2022-10-17T13:24:28;5.13;;;2.90;;
72517;SDS011;60540;51.178;6.738;2022-10-17T13:26:54;8.07;;;3.17;;
72517;SDS011;60540;51.178;6.738;2022-10-17T13:29:20;6.28;;;2.80;;
72517;SDS011;60540;51.178;6.738;2022-10-17T13:31:54;5.38;;;2.78;;
72517;SDS011;60540;51.178;6.738;2022-10-17T13:34:23;5.55;;;2.42;;
72517;SDS011;60540;51.178;6.738;2022-10-17T13:36:53;5.57;;;2.40;;
72517;SDS011;60540;51.178;6.738;2022-10-17T13:39:21;5.47;;;2.22;;
72517;SDS011;60540;51.178;6.738;2022-10-17T13:41:48;5.32;;;2.25;;
72517;SDS011;60540;51.178;6.738;2022-10-17T13:44:19;6.72;;;2.10;;
72517;SDS011;60540;51.178;6.738;2022-10-17T13:46:45;4.85;;;2.30;;
72517;SDS011;60540;51.178;6.738;2022-10-17T13:49:14;6.75;;;2.42;;
72517;SDS011;60540;51.178;6.738;2022-10-17T13:51:46;4.78;;;2.30;;
72517;SDS011;60540;51.178;6.738;2022-10-17T13:57:28;7.35;;;3.80;;
72517;SDS011;60540;51.178;6.738;2022-10-17T14:00:01;5.70;;;2.20;;
72517;SDS011;60540;51.178;6.738;2022-10-17T14:02:30;3.92;;;2.03;;
72517;SDS011;60540;51.178;6.738;2022-10-17T14:05:14;4.32;;;2.20;;
72517;SDS011;60540;51.178;6.738;2022-10-17T14:10:17;6.88;;;2.20;;
72517;SDS011;60540;51.178;6.738;2022-10-17T14:12:47;3.78;;;1.80;;
72517;SDS011;60540;51.178;6.738;2022-10-17T14:15:13;8.43;;;2.55;;
72517;SDS011;60540;51.178;6.738;2022-10-17T14:17:39;5.20;;;2.10;;
72517;SDS011;60540;51.178;6.738;2022-10-17T14:20:05;5.95;;;2.65;;
72517;SDS011;60540;51.178;6.738;2022-10-17T14:22:34;5.45;;;2.10;;
72517;SDS011;60540;51.178;6.738;2022-10-17T14:25:00;5.15;;;2.10;;
72517;SDS011;60540;51.178;6.738;2022-10-17T14:27:36;7.53;;;2.78;;
72517;SDS011;60540;51.178;6.738;2022-10-17T14:32:52;9.20;;;2.55;;
72517;SDS011;60540;51.178;6.738;2022-10-17T14:35:20;3.88;;;2.13;;
72517;SDS011;60540;51.178;6.738;2022-10-17T14:37:46;6.45;;;2.40;;
72517;SDS011;60540;51.178;6.738;2022-10-17T14:40:17;5.28;;;2.30;;
72517;SDS011;60540;51.178;6.738;2022-10-17T14:42:43;4.60;;;2.10;;
72517;SDS011;60540;51.178;6.738;2022-10-17T14:45:16;7.00;;;2.08;;
72517;SDS011;60540;51.178;6.738;2022-10-17T14:47:47;5.53;;;2.28;;
72517;SDS011;60540;51.178;6.738;2022-10-17T14:52:40;10.13;;;2.38;;
72517;SDS011;60540;51.178;6.738;2022-10-17T14:55:21;5.68;;;2.00;;
72517;SDS011;60540;51.178;6.738;2022-10-17T14:57:48;6.55;;;2.30;;
72517;SDS011;60540;51.178;6.738;2022-10-17T15:00:15;8.13;;;2.83;;
72517;SDS011;60540;51.178;6.738;2022-10-17T15:02:41;5.82;;;2.50;;
72517;SDS011;60540;51.178;6.738;2022-10-17T15:05:08;7.25;;;2.55;;
72517;SDS011;60540;51.178;6.738;2022-10-17T15:07:33;5.13;;;2.55;;
72517;SDS011;60540;51.178;6.738;2022-10-17T15:10:01;4.88;;;2.42;;
72517;SDS011;60540;51.178;6.738;2022-10-17T15:12:27;6.95;;;2.20;;
72517;SDS011;60540;51.178;6.738;2022-10-17T15:14:52;6.10;;;2.75;;
72517;SDS011;60540;51.178;6.738;2022-10-17T15:17:25;6.38;;;2.40;;
72517;SDS011;60540;51.178;6.738;2022-10-17T15:19:52;9.30;;;2.50;;
72517;SDS011;60540;51.178;6.738;2022-10-17T15:22:18;5.53;;;2.05;;
72517;SDS011;60540;51.178;6.738;2022-10-17T15:24:44;5.40;;;2.20;;
72517;SDS011;60540;51.178;6.738;2022-10-17T15:27:17;7.22;;;2.42;;
72517;SDS011;60540;51.178;6.738;2022-10-17T15:29:46;5.07;;;2.83;;
72517;SDS011;60540;51.178;6.738;2022-10-17T15:32:13;5.50;;;2.20;;
72517;SDS011;60540;51.178;6.738;2022-10-17T15:34:38;4.10;;;2.33;;
72517;SDS011;60540;51.178;6.738;2022-10-17T15:37:05;6.65;;;3.20;;
72517;SDS011;60540;51.178;6.738;2022-10-17T15:39:31;6.10;;;3.47;;
72517;SDS011;60540;51.178;6.738;2022-10-17T15:41:57;6.70;;;2.63;;
72517;SDS011;60540;51.178;6.738;2022-10-17T15:44:24;5.68;;;2.63;;
72517;SDS011;60540;51.178;6.738;2022-10-17T15:46:49;7.68;;;2.50;;
72517;SDS011;60540;51.178;6.738;2022-10-17T15:49:15;6.93;;;2.75;;
72517;SDS011;60540;51.178;6.738;2022-10-17T15:51:42;5.80;;;2.83;;
72517;SDS011;60540;51.178;6.738;2022-10-17T15:54:08;5.38;;;2.33;;
72517;SDS011;60540;51.178;6.738;2022-10-17T15:56:35;5.57;;;2.60;;
72517;SDS011;60540;51.178;6.738;2022-10-17T15:59:06;5.50;;;2.40;;
72517;SDS011;60540;51.178;6.738;2022-10-17T16:01:37;6.22;;;3.40;;
72517;SDS011;60540;51.178;6.738;2022-10-17T16:06:28;6.50;;;2.70;;
72517;SDS011;60540;51.178;6.738;2022-10-17T16:08:54;4.93;;;2.15;;
72517;SDS011;60540;51.178;6.738;2022-10-17T16:13:54;6.00;;;2.63;;
72517;SDS011;60540;51.178;6.738;2022-10-17T16:16:22;4.90;;;2.65;;
72517;SDS011;60540;51.178;6.738;2022-10-17T16:18:48;4.97;;;2.70;;
72517;SDS011;60540;51.178;6.738;2022-10-17T16:21:14;5.50;;;2.85;;
72517;SDS011;60540;51.178;6.738;2022-10-17T16:23:40;6.28;;;2.70;;
72517;SDS011;60540;51.178;6.738;2022-10-17T16:26:06;6.32;;;3.10;;
72517;SDS011;60540;51.178;6.738;2022-10-17T16:28:33;6.18;;;3.00;;
72517;SDS011;60540;51.178;6.738;2022-10-17T16:30:59;6.38;;;2.42;;
72517;SDS011;60540;51.178;6.738;2022-10-17T16:33:25;6.15;;;3.10;;
72517;SDS011;60540;51.178;6.738;2022-10-17T16:35:50;7.28;;;3.72;;
72517;SDS011;60540;51.178;6.738;2022-10-17T16:38:16;5.80;;;2.72;;
72517;SDS011;60540;51.178;6.738;2022-10-17T16:40:42;6.63;;;2.95;;
72517;SDS011;60540;51.178;6.738;2022-10-17T16:43:09;5.10;;;2.70;;